Været på Ålesund Lufhavn, Vigra (ENAL)

 

Time for time, neste 48 timer:

Detaljert varsel fra yr.no - 48 timer

Vindprognose for Breisundet:

Vindvarsel

Upper Winds 3000 fot akkurat nå:

ENAL akkurat nå:

  • METAR: 270350Z AUTO 21008KT 9999 OVC049/// 09/02 Q0992
  • TAF: TAF 270200Z 2703/2712 VRB08KT 9999 -RA SCT012 BKN020 TEMPO 2703/2709 RA BKN012 BECMG 2709/2711 08012KT